Abrahams Bay, Bahamas

4:21 PM EST on January 19, 2017 (GMT -0500)
Providenciales International | | Change Station

Elev 13 ft 21.77 °N, 72.27 °W | Updated 1 hour ago

Clear
Clear
79 °F
Feels Like 79 °F
N
8
Wind Variable Wind from North

Today
High -- | Low -- °F
--% Chance of Precip.
Yesterday
High -- | Low -- °F
Precip. -- in
Pressure 29.95 in
Visibility 6.2 miles
Clouds Scattered Clouds 1500 ft
Dew Point 64 °F
Humidity 61%
Rainfall 0.00 in
Snow Depth Not available.
6:33 AM 5:31 PM
Waning Gibbous, 50% visible
METAR MBPV 192000Z 01007KT 9999 SCT015 26/18 Q1014
Pressure 29.95 in
Visibility 6.2 miles
Clouds Scattered Clouds 1500 ft
Dew Point 64 °F
Humidity 61%
Rainfall 0.00 in
Snow Depth Not available.
6:33 AM 5:31 PM
Waning Gibbous, 50% visible
METAR MBPV 192000Z 01007KT 9999 SCT015 26/18 Q1014

Get Your Daily Forecast Email!

Thanks for signing up!

Be on the lookout for a verification email in your inbox.

You'll start receiving the daily forecast at 8 AM.

×

10-Day Weather Forecast

No radar image for this location.
×

Almanac

Astronomy

Jan. 19, 2017 Rise Set
Actual Time
Civil Twilight
Nautical Twilight
Astronomical Twilight
Moon
Length of Visible Light
Length of Day
Tomorrow will be .
, % of the Moon is Illuminated

Today's Extremes

Country Highs Country Lows

Community

WunderPhotos

Upload Photos

1,962,540 photos uploaded!

WunderBlog® & News

Nearby

Air Quality

  Air Quality AQ Index Pollutant
Not available.

Snow Depth

Station Depth Elevation

Earthquake Activity

City Distance Mag. Time & Date
Minimum magnitude displayed is 2.5.

Coastal Water Temperatures

Place Temperature

Stations

Nearby Weather Stations

Station Location Temp. Windchill Dew Point Humidity Wind Precip. Elev Updated Type